createdAt,value
2022-08-30T00:02:03.962Z,22.12
2022-08-30T00:04:26.618Z,22.12
2022-08-30T00:06:49.237Z,22.16
2022-08-30T00:09:12.172Z,22.08
2022-08-30T00:11:34.852Z,22.09
2022-08-30T00:13:58.218Z,22.00
2022-08-30T00:16:22.325Z,22.04
2022-08-30T00:18:45.277Z,21.98
2022-08-30T00:21:08.754Z,21.98
2022-08-30T00:23:32.443Z,22.00
2022-08-30T00:25:55.122Z,21.97
2022-08-30T00:28:17.684Z,21.88
2022-08-30T00:30:42.095Z,21.91
2022-08-30T00:33:04.919Z,21.91
2022-08-30T00:35:27.649Z,21.94
2022-08-30T00:37:50.912Z,21.94
2022-08-30T00:40:16.005Z,21.84
2022-08-30T00:42:39.541Z,21.77
2022-08-30T00:45:13.379Z,21.73
2022-08-30T00:47:36.100Z,21.74
2022-08-30T00:49:58.655Z,21.74
2022-08-30T00:52:23.737Z,21.70
2022-08-30T00:54:47.612Z,21.73
2022-08-30T00:57:12.684Z,21.76
2022-08-30T00:59:35.534Z,21.73
2022-08-30T01:01:58.298Z,21.74
2022-08-30T01:04:25.373Z,21.70
2022-08-30T01:06:48.351Z,21.64
2022-08-30T01:09:11.031Z,21.67
2022-08-30T01:11:36.003Z,21.64
2022-08-30T01:13:59.389Z,21.64
2022-08-30T01:16:23.074Z,21.67
2022-08-30T01:18:46.242Z,21.73
2022-08-30T01:21:23.288Z,21.50
2022-08-30T01:23:48.087Z,21.59
2022-08-30T01:26:11.641Z,21.56
2022-08-30T01:28:35.280Z,21.56
2022-08-30T01:30:58.325Z,21.54
2022-08-30T01:33:22.112Z,21.53
2022-08-30T01:35:49.612Z,21.57
2022-08-30T01:38:14.245Z,21.60
2022-08-30T01:40:37.228Z,21.59
2022-08-30T01:43:00.048Z,21.63
2022-08-30T01:45:22.737Z,21.63
2022-08-30T01:47:45.839Z,21.64
2022-08-30T01:50:09.547Z,21.64
2022-08-30T01:52:32.512Z,21.54
2022-08-30T01:54:55.158Z,21.60
2022-08-30T01:57:21.145Z,21.63
2022-08-30T01:59:47.716Z,21.61
2022-08-30T02:02:10.902Z,21.61
2022-08-30T02:04:36.438Z,21.59
2022-08-30T02:06:59.173Z,21.54
2022-08-30T02:09:22.010Z,21.57
2022-08-30T02:11:44.894Z,21.59
2022-08-30T02:14:07.568Z,21.51
2022-08-30T02:16:30.248Z,21.57
2022-08-30T02:18:54.361Z,21.56
2022-08-30T02:21:17.674Z,21.45
2022-08-30T02:23:40.580Z,21.45
2022-08-30T02:26:04.194Z,21.49
2022-08-30T02:28:27.447Z,21.40
2022-08-30T02:30:50.194Z,21.39
2022-08-30T02:33:13.012Z,21.38
2022-08-30T02:35:35.725Z,21.38
2022-08-30T02:37:58.497Z,21.45
2022-08-30T02:42:58.703Z,21.29
2022-08-30T02:45:21.325Z,21.26
2022-08-30T02:47:46.970Z,21.32
2022-08-30T02:50:10.283Z,21.39
2022-08-30T02:52:32.919Z,21.35
2022-08-30T02:54:55.495Z,21.38
2022-08-30T02:57:20.067Z,21.39
2022-08-30T02:59:45.377Z,21.35
2022-08-30T03:02:08.308Z,21.40
2022-08-30T03:04:30.978Z,21.35
2022-08-30T03:06:54.667Z,21.36
2022-08-30T03:09:17.403Z,21.33
2022-08-30T03:11:40.804Z,21.35
2022-08-30T03:14:03.946Z,21.26
2022-08-30T03:16:26.700Z,21.26
2022-08-30T03:18:49.339Z,21.29
2022-08-30T03:21:13.857Z,21.26
2022-08-30T03:23:36.437Z,21.25
2022-08-30T03:25:59.094Z,21.28
2022-08-30T03:28:21.670Z,21.23
2022-08-30T03:30:44.222Z,21.19
2022-08-30T03:33:12.319Z,21.18
2022-08-30T03:35:34.884Z,21.15
2022-08-30T03:37:59.097Z,21.06
2022-08-30T03:40:22.948Z,20.77
2022-08-30T03:42:47.864Z,20.51
2022-08-30T03:45:12.088Z,20.30
2022-08-30T03:47:34.955Z,20.16
2022-08-30T03:49:57.802Z,20.06
2022-08-30T03:52:20.348Z,20.00
2022-08-30T03:55:05.112Z,19.98
2022-08-30T03:57:29.060Z,19.89
2022-08-30T03:59:51.813Z,20.08
2022-08-30T04:02:14.511Z,20.02
2022-08-30T04:04:37.463Z,19.99
2022-08-30T04:07:00.361Z,19.93
2022-08-30T04:09:23.474Z,19.95
2022-08-30T04:11:46.136Z,19.86
2022-08-30T04:14:08.916Z,19.74
2022-08-30T04:16:31.542Z,19.79
2022-08-30T04:18:54.175Z,19.81
2022-08-30T04:21:17.038Z,19.83
2022-08-30T04:23:39.737Z,19.90
2022-08-30T04:26:02.372Z,19.99
2022-08-30T04:28:25.591Z,20.16
2022-08-30T04:30:48.689Z,20.27
2022-08-30T04:33:13.405Z,20.33
2022-08-30T04:35:36.064Z,20.40
2022-08-30T04:37:58.716Z,20.50
2022-08-30T04:40:21.444Z,20.61
2022-08-30T04:42:44.379Z,20.61
2022-08-30T04:45:09.834Z,20.61
2022-08-30T04:47:32.681Z,20.67
2022-08-30T04:49:55.313Z,20.90
2022-08-30T04:52:17.941Z,21.01
2022-08-30T04:54:40.599Z,20.85
2022-08-30T04:57:03.337Z,20.95
2022-08-30T04:59:26.808Z,21.03
2022-08-30T05:01:49.447Z,21.05
2022-08-30T05:04:12.043Z,21.09
2022-08-30T05:06:34.556Z,21.19
2022-08-30T05:08:57.461Z,21.29
2022-08-30T05:11:20.423Z,21.38
2022-08-30T05:13:44.100Z,21.46
2022-08-30T05:16:08.640Z,21.46
2022-08-30T05:18:31.394Z,21.53
2022-08-30T05:21:15.095Z,21.70
2022-08-30T05:23:39.144Z,21.76
2022-08-30T05:26:10.260Z,22.08
2022-08-30T05:28:33.221Z,22.87
2022-08-30T05:30:55.840Z,23.61
2022-08-30T05:33:18.485Z,24.04
2022-08-30T05:35:41.080Z,24.33
2022-08-30T05:38:04.055Z,24.42
2022-08-30T05:40:26.834Z,23.89
2022-08-30T05:42:52.064Z,23.52
2022-08-30T05:45:15.755Z,23.04
2022-08-30T05:47:39.038Z,22.91
2022-08-30T05:50:01.659Z,22.70
2022-08-30T05:52:24.400Z,22.62
2022-08-30T05:54:53.271Z,22.70
2022-08-30T05:57:15.937Z,23.24
2022-08-30T05:59:38.885Z,24.25
2022-08-30T06:02:01.614Z,24.13
2022-08-30T06:04:24.990Z,23.69
2022-08-30T06:06:47.743Z,23.55
2022-08-30T06:09:13.326Z,23.34
2022-08-30T06:11:36.698Z,23.28
2022-08-30T06:13:59.374Z,23.22
2022-08-30T06:16:24.153Z,23.15
2022-08-30T06:18:47.944Z,23.11
2022-08-30T06:21:21.598Z,23.10
2022-08-30T06:23:44.673Z,22.93
2022-08-30T06:26:08.088Z,22.89
2022-08-30T06:28:32.199Z,23.11
2022-08-30T06:30:54.812Z,23.10
2022-08-30T06:33:17.525Z,23.28
2022-08-30T06:35:56.719Z,23.17
2022-08-30T06:38:21.439Z,23.12
2022-08-30T06:40:44.135Z,22.90
2022-08-30T06:43:06.877Z,22.74
2022-08-30T06:45:31.066Z,22.94
2022-08-30T06:47:54.030Z,23.04
2022-08-30T06:50:17.707Z,23.06
2022-08-30T06:52:42.400Z,23.06
2022-08-30T06:55:06.161Z,23.22
2022-08-30T06:57:28.935Z,23.39
2022-08-30T06:59:57.384Z,23.61
2022-08-30T07:02:20.014Z,23.69
2022-08-30T07:04:42.751Z,23.75
2022-08-30T07:07:05.999Z,24.17
2022-08-30T07:09:28.915Z,24.37
2022-08-30T07:11:53.190Z,24.57
2022-08-30T07:14:15.885Z,24.67
2022-08-30T07:16:38.627Z,24.93
2022-08-30T07:19:03.175Z,25.02
2022-08-30T07:21:35.862Z,24.90
2022-08-30T07:23:59.780Z,24.86
2022-08-30T07:26:32.567Z,24.42
2022-08-30T07:28:56.128Z,24.64
2022-08-30T07:31:20.030Z,24.67
2022-08-30T07:33:42.841Z,24.72
2022-08-30T07:36:05.706Z,24.61
2022-08-30T07:38:28.570Z,24.38
2022-08-30T07:40:53.007Z,24.25
2022-08-30T07:43:16.665Z,24.38
2022-08-30T07:45:39.434Z,24.33
2022-08-30T07:48:02.183Z,24.30
2022-08-30T07:50:24.941Z,24.47
2022-08-30T07:52:47.662Z,24.41
2022-08-30T07:55:10.397Z,24.68
2022-08-30T07:57:34.531Z,24.86
2022-08-30T07:59:57.161Z,25.02
2022-08-30T08:02:20.373Z,25.22
2022-08-30T08:04:43.991Z,25.20
2022-08-30T08:07:06.785Z,25.24
2022-08-30T08:09:29.436Z,25.38
2022-08-30T08:11:52.966Z,25.48
2022-08-30T08:16:44.892Z,25.89
2022-08-30T08:19:09.312Z,25.70
2022-08-30T08:21:32.618Z,25.50
2022-08-30T08:23:56.183Z,26.12
2022-08-30T08:26:20.135Z,26.13
2022-08-30T08:28:43.202Z,26.02
2022-08-30T08:31:25.468Z,26.47
2022-08-30T08:33:51.592Z,26.11
2022-08-30T08:36:14.679Z,26.50
2022-08-30T08:38:40.732Z,26.64
2022-08-30T08:41:05.718Z,26.77
2022-08-30T08:43:30.145Z,26.78
2022-08-30T08:46:26.112Z,27.04
2022-08-30T08:49:00.036Z,26.94
2022-08-30T08:51:46.175Z,26.30
2022-08-30T08:54:38.827Z,26.08
2022-08-30T08:57:01.580Z,26.33
2022-08-30T08:59:24.635Z,26.32
2022-08-30T09:01:50.897Z,25.98
2022-08-30T09:04:37.882Z,25.94
2022-08-30T09:07:11.142Z,25.54
2022-08-30T09:09:41.989Z,25.61
2022-08-30T09:12:08.594Z,25.78
2022-08-30T09:14:44.204Z,25.88
2022-08-30T09:17:17.666Z,25.96
2022-08-30T09:20:02.756Z,25.70
2022-08-30T09:22:46.664Z,25.60
2022-08-30T09:25:37.682Z,25.70
2022-08-30T09:28:17.682Z,25.74
2022-08-30T09:30:59.006Z,26.01
2022-08-30T09:33:23.505Z,26.16
2022-08-30T09:35:50.424Z,26.32
2022-08-30T09:38:24.200Z,26.39
2022-08-30T09:40:51.442Z,26.43
2022-08-30T09:43:16.851Z,26.26
2022-08-30T09:45:42.803Z,26.15
2022-08-30T09:48:37.814Z,26.09
2022-08-30T09:51:15.421Z,26.13
2022-08-30T09:54:07.190Z,26.23
2022-08-30T09:56:39.025Z,26.39
2022-08-30T09:59:24.288Z,26.39
2022-08-30T10:01:51.927Z,26.56
2022-08-30T10:04:15.257Z,26.41
2022-08-30T10:06:46.123Z,26.51
2022-08-30T10:09:33.307Z,26.67
2022-08-30T10:12:32.802Z,26.91
2022-08-30T10:15:34.477Z,26.92
2022-08-30T10:18:46.111Z,27.26
2022-08-30T10:21:28.123Z,27.52
2022-08-30T10:23:57.904Z,27.28
2022-08-30T10:26:30.008Z,27.09
2022-08-30T10:29:16.344Z,26.88
2022-08-30T10:31:49.280Z,26.97
2022-08-30T10:34:24.459Z,26.99
2022-08-30T10:36:55.810Z,27.19
2022-08-30T10:39:24.390Z,27.32
2022-08-30T10:41:52.201Z,27.66
2022-08-30T10:44:18.271Z,27.77
2022-08-30T10:46:57.116Z,27.77
2022-08-30T10:49:25.863Z,27.89
2022-08-30T10:51:58.851Z,27.62
2022-08-30T10:54:41.932Z,27.66
2022-08-30T10:57:05.426Z,27.74
2022-08-30T10:59:29.059Z,27.66
2022-08-30T11:02:03.946Z,27.45
2022-08-30T11:04:48.742Z,27.47
2022-08-30T11:07:20.355Z,27.62
2022-08-30T11:09:58.211Z,27.74
2022-08-30T11:12:59.385Z,27.74
2022-08-30T11:15:27.148Z,27.74
2022-08-30T11:18:28.789Z,27.79
2022-08-30T11:20:56.429Z,27.87
2022-08-30T11:23:36.114Z,28.04
2022-08-30T11:26:07.825Z,27.91
2022-08-30T11:28:35.407Z,27.54
2022-08-30T11:31:06.685Z,27.64
2022-08-30T11:33:42.377Z,27.84
2022-08-30T11:36:13.288Z,27.77
2022-08-30T11:38:36.134Z,27.76
2022-08-30T11:41:14.352Z,27.91
2022-08-30T11:43:39.812Z,28.14
2022-08-30T11:46:24.335Z,28.11
2022-08-30T11:48:54.524Z,28.17
2022-08-30T11:51:24.069Z,28.19
2022-08-30T11:54:00.491Z,27.84
2022-08-30T11:56:27.759Z,28.01
2022-08-30T11:59:09.814Z,27.83
2022-08-30T12:01:51.503Z,28.28
2022-08-30T12:04:17.724Z,28.41
2022-08-30T12:06:40.378Z,28.41
2022-08-30T12:09:08.339Z,28.70
2022-08-30T12:11:33.847Z,29.14
2022-08-30T12:13:56.680Z,29.37
2022-08-30T12:16:35.701Z,29.41
2022-08-30T12:19:11.376Z,29.44
2022-08-30T12:21:44.661Z,29.34
2022-08-30T12:24:26.319Z,29.21
2022-08-30T12:26:51.444Z,29.06
2022-08-30T12:29:27.600Z,28.90
2022-08-30T12:32:15.049Z,28.52
2022-08-30T12:34:40.683Z,28.27
2022-08-30T12:37:10.800Z,28.27
2022-08-30T12:39:37.208Z,28.21
2022-08-30T12:42:27.031Z,28.29
2022-08-30T12:44:53.467Z,28.24
2022-08-30T12:47:21.494Z,28.49
2022-08-30T12:49:46.352Z,28.55
2022-08-30T12:52:31.642Z,28.63
2022-08-30T12:54:56.759Z,28.84
2022-08-30T12:58:00.766Z,28.80
2022-08-30T13:00:28.020Z,28.75
2022-08-30T13:02:53.284Z,28.44
2022-08-30T13:05:44.999Z,28.58
2022-08-30T13:08:21.321Z,28.35
2022-08-30T13:11:03.288Z,28.37
2022-08-30T13:14:20.927Z,28.34
2022-08-30T13:16:45.419Z,28.39
2022-08-30T13:19:37.177Z,28.45
2022-08-30T13:22:00.381Z,28.55
2022-08-30T13:24:25.740Z,28.48
2022-08-30T13:26:48.448Z,28.53
2022-08-30T13:29:20.447Z,28.56
2022-08-30T13:31:43.645Z,28.90
2022-08-30T13:34:06.417Z,29.10
2022-08-30T13:36:32.361Z,28.73
2022-08-30T13:38:55.890Z,28.58
2022-08-30T13:41:21.330Z,28.67
2022-08-30T13:46:28.102Z,28.65
2022-08-30T13:48:58.642Z,28.46
2022-08-30T13:51:21.178Z,28.38
2022-08-30T13:53:59.008Z,28.35
2022-08-30T13:56:21.884Z,28.53
2022-08-30T13:58:44.528Z,28.67
2022-08-30T14:01:09.307Z,28.80
2022-08-30T14:03:32.016Z,28.77
2022-08-30T14:06:15.858Z,28.62
2022-08-30T14:08:48.642Z,28.60
2022-08-30T14:11:18.739Z,28.51
2022-08-30T14:16:27.240Z,28.37
2022-08-30T14:18:50.595Z,28.51
2022-08-30T14:21:13.307Z,28.51
2022-08-30T14:23:35.856Z,28.41
2022-08-30T14:26:02.001Z,28.48
2022-08-30T14:28:26.022Z,28.58
2022-08-30T14:30:50.569Z,28.49
2022-08-30T14:33:13.757Z,28.72
2022-08-30T14:36:17.386Z,28.73
2022-08-30T14:38:40.428Z,28.69
2022-08-30T14:41:06.446Z,28.53
2022-08-30T14:43:29.117Z,28.45
2022-08-30T14:45:51.926Z,28.49
2022-08-30T14:48:14.841Z,28.39
2022-08-30T14:50:38.299Z,28.42
2022-08-30T14:53:01.043Z,28.42
2022-08-30T14:55:23.717Z,28.58
2022-08-30T14:57:46.546Z,28.37
2022-08-30T15:00:13.221Z,28.17
2022-08-30T15:02:35.916Z,28.10
2022-08-30T15:04:58.464Z,27.96
2022-08-30T15:07:21.071Z,27.83
2022-08-30T15:09:44.403Z,27.86
2022-08-30T15:12:08.784Z,27.94
2022-08-30T15:14:32.012Z,27.97
2022-08-30T15:16:55.918Z,27.93
2022-08-30T15:19:18.736Z,27.96
2022-08-30T15:21:45.061Z,27.93
2022-08-30T15:24:11.509Z,27.93
2022-08-30T15:26:34.357Z,27.87
2022-08-30T15:28:57.216Z,27.86
2022-08-30T15:31:21.717Z,27.81
2022-08-30T15:33:45.437Z,27.81
2022-08-30T15:36:09.115Z,27.83
2022-08-30T15:38:31.923Z,27.76
2022-08-30T15:40:56.745Z,27.70
2022-08-30T15:43:19.998Z,27.66
2022-08-30T15:45:42.634Z,27.71
2022-08-30T15:48:05.875Z,27.76
2022-08-30T15:50:29.787Z,27.73
2022-08-30T15:52:52.575Z,27.63
2022-08-30T15:55:15.203Z,27.60
2022-08-30T15:57:38.150Z,27.52
2022-08-30T16:00:01.511Z,27.41
2022-08-30T16:02:27.582Z,27.52
2022-08-30T16:04:50.686Z,27.62
2022-08-30T16:07:15.557Z,27.71
2022-08-30T16:09:39.176Z,27.67
2022-08-30T16:12:05.161Z,27.62
2022-08-30T16:14:27.925Z,27.67
2022-08-30T16:16:50.619Z,27.70
2022-08-30T16:19:13.357Z,27.70
2022-08-30T16:21:37.549Z,27.56
2022-08-30T16:24:01.655Z,27.57
2022-08-30T16:26:26.941Z,27.60
2022-08-30T16:28:51.950Z,27.49
2022-08-30T16:31:17.456Z,27.45
2022-08-30T16:33:43.799Z,27.56
2022-08-30T16:36:07.660Z,27.50
2022-08-30T16:38:30.898Z,27.53
2022-08-30T16:40:54.108Z,27.49
2022-08-30T16:43:19.717Z,27.39
2022-08-30T16:45:44.544Z,27.31
2022-08-30T16:48:09.384Z,27.15
2022-08-30T16:50:40.890Z,27.08
2022-08-30T16:53:03.977Z,27.12
2022-08-30T16:55:31.274Z,27.06
2022-08-30T16:57:53.890Z,26.99
2022-08-30T17:00:17.011Z,26.98
2022-08-30T17:02:39.815Z,26.94
2022-08-30T17:05:02.394Z,26.84
2022-08-30T17:07:25.652Z,26.81
2022-08-30T17:09:52.100Z,26.67
2022-08-30T17:12:15.533Z,26.63
2022-08-30T17:14:38.217Z,26.64
2022-08-30T17:17:01.654Z,26.56
2022-08-30T17:19:26.780Z,26.44
2022-08-30T17:21:50.128Z,26.30
2022-08-30T17:24:12.974Z,26.25
2022-08-30T17:26:37.315Z,26.25
2022-08-30T17:29:00.221Z,26.13
2022-08-30T17:31:23.096Z,26.11
2022-08-30T17:33:46.164Z,26.06
2022-08-30T17:36:09.421Z,25.98
2022-08-30T17:38:32.106Z,25.89
2022-08-30T17:40:54.758Z,25.88
2022-08-30T17:43:17.597Z,25.80
2022-08-30T17:45:40.210Z,25.81
2022-08-30T17:48:03.073Z,25.84
2022-08-30T17:50:25.638Z,25.78
2022-08-30T17:52:50.832Z,25.74
2022-08-30T17:55:14.090Z,25.65
2022-08-30T17:57:36.986Z,25.57
2022-08-30T18:00:00.209Z,25.48
2022-08-30T18:02:25.200Z,25.43
2022-08-30T18:04:57.969Z,25.27
2022-08-30T18:07:21.800Z,25.24
2022-08-30T18:09:44.959Z,25.13
2022-08-30T18:12:07.814Z,25.12
2022-08-30T18:14:30.825Z,25.06
2022-08-30T18:16:54.639Z,25.02
2022-08-30T18:19:17.597Z,24.96
2022-08-30T18:21:40.463Z,24.92
2022-08-30T18:24:04.755Z,24.85
2022-08-30T18:26:31.907Z,24.78
2022-08-30T18:28:55.344Z,24.68
2022-08-30T18:31:17.807Z,24.65
2022-08-30T18:33:40.477Z,24.65
2022-08-30T18:36:06.184Z,24.58
2022-08-30T18:38:28.843Z,24.55
2022-08-30T18:40:53.335Z,24.50
2022-08-30T18:43:16.338Z,24.51
2022-08-30T18:45:45.549Z,24.44
2022-08-30T18:48:11.956Z,24.38
2022-08-30T18:50:36.654Z,24.37
2022-08-30T18:53:00.092Z,24.25
2022-08-30T18:55:22.782Z,24.28
2022-08-30T18:57:45.568Z,24.24
2022-08-30T19:00:10.489Z,24.21
2022-08-30T19:02:34.776Z,24.23
2022-08-30T19:04:57.402Z,24.16
2022-08-30T19:07:21.906Z,24.06
2022-08-30T19:09:52.036Z,24.03
2022-08-30T19:12:16.140Z,23.97
2022-08-30T19:14:39.282Z,23.97
2022-08-30T19:17:06.752Z,23.87
2022-08-30T19:19:29.918Z,23.87
2022-08-30T19:21:54.432Z,23.83
2022-08-30T19:24:18.842Z,23.75
2022-08-30T19:26:42.615Z,23.79
2022-08-30T19:29:09.132Z,23.76
2022-08-30T19:31:34.416Z,23.76
2022-08-30T19:33:57.164Z,23.65
2022-08-30T19:36:19.990Z,23.65
2022-08-30T19:38:44.477Z,23.65
2022-08-30T19:41:07.820Z,23.55
2022-08-30T19:43:31.139Z,23.48
2022-08-30T19:45:55.719Z,23.42
2022-08-30T19:48:22.368Z,23.42
2022-08-30T19:50:45.153Z,23.47
2022-08-30T19:53:10.535Z,23.42
2022-08-30T19:55:34.284Z,23.31
2022-08-30T19:57:57.319Z,23.32
2022-08-30T20:00:20.099Z,23.31
2022-08-30T20:02:42.903Z,23.22
2022-08-30T20:05:08.192Z,23.21
2022-08-30T20:07:36.159Z,23.22
2022-08-30T20:10:00.598Z,23.21
2022-08-30T20:12:23.193Z,23.15
2022-08-30T20:14:47.130Z,23.17
2022-08-30T20:17:12.030Z,23.11
2022-08-30T20:19:35.200Z,23.07
2022-08-30T20:21:59.333Z,23.01
2022-08-30T20:24:30.655Z,23.06
2022-08-30T20:26:54.173Z,23.01
2022-08-30T20:29:17.635Z,23.01
2022-08-30T20:31:40.207Z,22.99
2022-08-30T20:34:03.914Z,22.99
2022-08-30T20:36:26.468Z,22.99
2022-08-30T20:38:49.842Z,22.93
2022-08-30T20:41:16.848Z,22.87
2022-08-30T20:43:39.668Z,22.83
2022-08-30T20:46:15.791Z,22.72
2022-08-30T20:48:39.257Z,22.73
2022-08-30T20:51:03.917Z,22.70
2022-08-30T20:53:26.519Z,22.67
2022-08-30T20:55:49.036Z,22.56
2022-08-30T20:58:12.619Z,22.52
2022-08-30T21:00:36.425Z,22.46
2022-08-30T21:02:59.069Z,22.45
2022-08-30T21:05:21.794Z,22.36
2022-08-30T21:07:46.068Z,22.41
2022-08-30T21:10:09.533Z,22.35
2022-08-30T21:12:32.531Z,22.38
2022-08-30T21:14:55.328Z,22.43
2022-08-30T21:17:18.527Z,22.43
2022-08-30T21:19:43.966Z,22.32
2022-08-30T21:22:06.886Z,22.34
2022-08-30T21:24:31.819Z,22.26
2022-08-30T21:26:55.755Z,22.32
2022-08-30T21:29:18.401Z,22.28
2022-08-30T21:31:41.218Z,22.29
2022-08-30T21:34:04.728Z,22.19
2022-08-30T21:36:46.455Z,22.18
2022-08-30T21:39:10.102Z,22.16
2022-08-30T21:41:33.717Z,22.19
2022-08-30T21:44:01.780Z,22.12
2022-08-30T21:46:25.822Z,22.16
2022-08-30T21:48:49.185Z,22.15
2022-08-30T21:51:12.374Z,22.08
2022-08-30T21:53:35.419Z,22.09
2022-08-30T21:55:58.088Z,22.01
2022-08-30T21:58:21.985Z,21.95
2022-08-30T22:00:44.653Z,21.94
2022-08-30T22:03:07.373Z,21.90
2022-08-30T22:05:30.096Z,21.97
2022-08-30T22:07:52.548Z,21.91
2022-08-30T22:10:15.179Z,21.86
2022-08-30T22:12:38.590Z,21.77
2022-08-30T22:15:05.439Z,21.77
2022-08-30T22:17:28.175Z,21.77
2022-08-30T22:19:50.965Z,21.70
2022-08-30T22:22:14.103Z,21.67
2022-08-30T22:24:36.664Z,21.70
2022-08-30T22:27:00.581Z,21.71
2022-08-30T22:29:23.207Z,21.74
2022-08-30T22:31:45.862Z,21.73
2022-08-30T22:34:10.169Z,21.70
2022-08-30T22:36:35.512Z,21.64
2022-08-30T22:39:00.127Z,21.63
2022-08-30T22:41:30.030Z,21.63
2022-08-30T22:43:54.722Z,21.61
2022-08-30T22:46:18.753Z,21.59
2022-08-30T22:48:52.327Z,21.57
2022-08-30T22:51:16.192Z,21.46
2022-08-30T22:53:39.455Z,21.51
2022-08-30T22:56:12.410Z,21.54
2022-08-30T22:58:35.036Z,21.60
2022-08-30T23:00:57.713Z,21.53
2022-08-30T23:03:23.438Z,21.50
2022-08-30T23:05:46.033Z,21.49
2022-08-30T23:08:08.931Z,21.42
2022-08-30T23:10:32.303Z,21.36
2022-08-30T23:12:55.959Z,21.30
2022-08-30T23:15:18.662Z,21.23
2022-08-30T23:17:41.714Z,21.03
2022-08-30T23:20:05.806Z,20.95
2022-08-30T23:22:31.694Z,20.74
2022-08-30T23:25:16.084Z,20.57
2022-08-30T23:27:57.921Z,20.67
2022-08-30T23:30:39.246Z,20.70
2022-08-30T23:33:20.835Z,20.60
2022-08-30T23:36:02.293Z,20.57
2022-08-30T23:38:43.499Z,20.58
2022-08-30T23:41:24.845Z,20.58
2022-08-30T23:44:15.331Z,20.61
2022-08-30T23:46:56.766Z,20.65
2022-08-30T23:49:38.268Z,20.58
2022-08-30T23:52:19.732Z,20.50
2022-08-30T23:55:00.908Z,20.43
2022-08-30T23:57:42.266Z,20.54
